createdAt,value
2023-02-11T00:00:17.831Z,20.52
2023-02-11T00:02:47.709Z,18.40
2023-02-11T00:05:15.186Z,21.45
2023-02-11T00:07:42.076Z,19.08
2023-02-11T00:10:09.330Z,22.13
2023-02-11T00:12:37.613Z,22.50
2023-02-11T00:15:05.906Z,20.33
2023-02-11T00:17:33.037Z,22.35
2023-02-11T00:19:59.763Z,21.60
2023-02-11T00:22:27.311Z,20.00
2023-02-11T00:24:54.141Z,17.85
2023-02-11T00:27:20.977Z,24.25
2023-02-11T00:29:47.762Z,23.27
2023-02-11T00:32:14.569Z,19.20
2023-02-11T00:34:41.278Z,18.17
2023-02-11T00:37:07.983Z,22.25
2023-02-11T00:39:34.687Z,21.20
2023-02-11T00:42:03.374Z,20.65
2023-02-11T00:44:30.225Z,21.45
2023-02-11T00:46:57.170Z,19.15
2023-02-11T00:49:25.196Z,22.50
2023-02-11T00:51:52.362Z,25.52
2023-02-11T00:54:20.127Z,18.33
2023-02-11T00:56:46.854Z,22.77
2023-02-11T00:59:13.882Z,22.25
2023-02-11T01:01:44.004Z,19.08
2023-02-11T01:04:10.836Z,20.98
2023-02-11T01:06:37.492Z,23.08
2023-02-11T01:09:05.708Z,20.83
2023-02-11T01:11:35.229Z,19.75
2023-02-11T01:14:02.543Z,18.25
2023-02-11T01:16:29.503Z,22.52
2023-02-11T01:18:56.162Z,22.23
2023-02-11T01:21:23.036Z,22.08
2023-02-11T01:23:51.181Z,20.50
2023-02-11T01:26:17.904Z,21.75
2023-02-11T01:28:44.974Z,21.40
2023-02-11T01:31:11.808Z,20.58
2023-02-11T01:33:38.638Z,21.42
2023-02-11T01:36:07.196Z,22.80
2023-02-11T01:38:34.229Z,19.20
2023-02-11T01:41:07.157Z,20.77
2023-02-11T01:43:41.366Z,20.30
2023-02-11T01:46:32.186Z,23.50
2023-02-11T01:49:10.680Z,21.48
2023-02-11T01:51:40.129Z,22.63
2023-02-11T01:54:28.711Z,24.17
2023-02-11T01:57:16.692Z,18.15
2023-02-11T02:00:07.978Z,22.55
2023-02-11T02:02:58.424Z,18.08
2023-02-11T02:05:43.542Z,17.85
2023-02-11T02:08:29.372Z,23.60
2023-02-11T02:10:58.428Z,20.45
2023-02-11T02:13:25.893Z,19.33
2023-02-11T02:15:59.217Z,20.85
2023-02-11T02:19:18.298Z,22.20
2023-02-11T02:22:05.098Z,21.35
2023-02-11T02:25:03.222Z,20.00
2023-02-11T02:28:09.944Z,21.00
2023-02-11T02:31:03.220Z,18.40
2023-02-11T02:33:37.825Z,17.95
2023-02-11T02:36:26.467Z,22.65
2023-02-11T02:39:04.313Z,20.63
2023-02-11T02:41:34.187Z,19.75
2023-02-11T02:44:01.731Z,19.88
2023-02-11T02:46:32.321Z,17.27
2023-02-11T02:48:59.669Z,20.43
2023-02-11T02:51:58.956Z,20.48
2023-02-11T02:55:02.039Z,20.65
2023-02-11T02:57:31.269Z,20.52
2023-02-11T03:00:05.341Z,22.85
2023-02-11T03:03:05.535Z,18.25
2023-02-11T03:05:50.748Z,22.10
2023-02-11T03:08:24.268Z,22.70
2023-02-11T03:10:53.685Z,19.27
2023-02-11T03:13:26.073Z,18.30
2023-02-11T03:15:56.923Z,21.70
2023-02-11T03:18:30.777Z,18.70
2023-02-11T03:20:59.820Z,21.70
2023-02-11T03:23:57.925Z,19.42
2023-02-11T03:26:34.401Z,22.80
2023-02-11T03:29:07.679Z,18.85
2023-02-11T03:31:41.483Z,22.77
2023-02-11T03:34:15.621Z,18.30
2023-02-11T03:36:48.570Z,15.88
2023-02-11T03:39:25.409Z,23.02
2023-02-11T03:41:55.651Z,21.80
2023-02-11T03:44:29.859Z,21.05
2023-02-11T03:46:56.695Z,19.15
2023-02-11T03:49:27.718Z,19.42
2023-02-11T03:51:55.827Z,19.38
2023-02-11T03:54:30.219Z,22.63
2023-02-11T03:57:00.008Z,17.30
2023-02-11T03:59:27.306Z,18.60
2023-02-11T04:01:54.532Z,20.38
2023-02-11T04:04:21.382Z,20.38
2023-02-11T04:06:48.114Z,17.98
2023-02-11T04:09:15.170Z,17.08
2023-02-11T04:11:42.151Z,19.73
2023-02-11T04:14:09.132Z,21.13
2023-02-11T04:16:35.885Z,18.55
2023-02-11T04:19:02.703Z,19.35
2023-02-11T04:21:29.526Z,22.50
2023-02-11T04:23:56.227Z,21.45
2023-02-11T04:26:23.417Z,17.08
2023-02-11T04:28:50.664Z,20.92
2023-02-11T04:31:17.499Z,17.98
2023-02-11T04:33:44.281Z,19.35
2023-02-11T04:36:11.201Z,18.45
2023-02-11T04:38:37.929Z,18.70
2023-02-11T04:41:04.739Z,20.45
2023-02-11T04:43:31.449Z,21.20
2023-02-11T04:45:58.880Z,16.77
2023-02-11T04:48:26.203Z,18.45
2023-02-11T04:50:52.928Z,16.67
2023-02-11T04:53:19.688Z,18.08
2023-02-11T04:55:50.910Z,19.15
2023-02-11T05:00:46.098Z,21.45
2023-02-11T05:03:13.030Z,17.63
2023-02-11T05:05:41.476Z,17.25
2023-02-11T05:08:09.371Z,18.48
2023-02-11T05:10:36.426Z,20.02
2023-02-11T05:13:03.568Z,20.55
2023-02-11T05:15:30.690Z,17.95
2023-02-11T05:17:57.422Z,17.30
2023-02-11T05:20:24.438Z,16.50
2023-02-11T05:22:51.178Z,17.25
2023-02-11T05:25:18.524Z,17.75
2023-02-11T05:27:45.262Z,19.42
2023-02-11T05:30:12.462Z,19.60
2023-02-11T05:32:39.138Z,19.00
2023-02-11T05:35:06.360Z,15.55
2023-02-11T05:37:33.540Z,19.83
2023-02-11T05:40:00.215Z,14.52
2023-02-11T05:42:26.995Z,18.42
2023-02-11T05:44:54.020Z,16.92
2023-02-11T05:47:20.677Z,17.98
2023-02-11T05:49:47.625Z,22.40
2023-02-11T05:52:14.519Z,15.98
2023-02-11T05:54:41.322Z,16.88
2023-02-11T05:57:08.008Z,15.68
2023-02-11T05:59:34.690Z,17.48
2023-02-11T06:02:02.069Z,18.80
2023-02-11T06:04:28.779Z,16.85
2023-02-11T06:06:55.510Z,14.73
2023-02-11T06:09:22.413Z,16.17
2023-02-11T06:11:49.109Z,18.15
2023-02-11T06:14:16.224Z,18.33
2023-02-11T06:16:43.218Z,16.00
2023-02-11T06:19:10.267Z,16.80
2023-02-11T06:21:43.953Z,15.32
2023-02-11T06:24:11.809Z,18.05
2023-02-11T06:26:38.462Z,24.58
2023-02-11T06:29:05.315Z,19.27
2023-02-11T06:31:32.141Z,19.63
2023-02-11T06:33:59.290Z,15.43
2023-02-11T06:36:26.273Z,16.33
2023-02-11T06:38:53.086Z,16.92
2023-02-11T06:41:20.408Z,16.17
2023-02-11T06:43:47.545Z,19.15
2023-02-11T06:46:14.985Z,17.05
2023-02-11T06:48:44.459Z,20.55
2023-02-11T06:51:13.304Z,17.27
2023-02-11T06:53:43.210Z,16.67
2023-02-11T06:56:12.447Z,14.75
2023-02-11T06:58:39.224Z,15.60
2023-02-11T07:01:11.147Z,15.77
2023-02-11T07:03:40.399Z,18.48
2023-02-11T07:06:08.637Z,16.95
2023-02-11T07:08:36.512Z,18.25
2023-02-11T07:11:13.690Z,16.65
2023-02-11T07:13:41.407Z,19.95
2023-02-11T07:16:11.480Z,17.48
2023-02-11T07:18:38.370Z,16.00
2023-02-11T07:21:10.263Z,17.98
2023-02-11T07:23:38.108Z,19.73
2023-02-11T07:26:06.578Z,17.38
2023-02-11T07:28:35.799Z,15.73
2023-02-11T07:31:10.475Z,17.83
2023-02-11T07:33:38.137Z,17.90
2023-02-11T07:36:06.770Z,17.85
2023-02-11T07:38:34.969Z,16.52
2023-02-11T07:41:07.706Z,17.70
2023-02-11T07:43:35.206Z,18.88
2023-02-11T07:46:06.800Z,17.92
2023-02-11T07:51:13.408Z,20.95
2023-02-11T07:53:40.470Z,23.05
2023-02-11T07:56:08.659Z,17.85
2023-02-11T07:58:36.090Z,21.08
2023-02-11T08:01:05.020Z,20.92
2023-02-11T08:03:33.217Z,21.60
2023-02-11T08:06:05.090Z,22.08
2023-02-11T08:08:31.851Z,19.45
2023-02-11T08:10:58.898Z,20.98
2023-02-11T08:13:26.901Z,18.98
2023-02-11T08:15:53.629Z,20.30
2023-02-11T08:18:20.564Z,18.10
2023-02-11T08:20:47.570Z,23.80
2023-02-11T08:23:14.239Z,21.40
2023-02-11T08:25:40.989Z,22.25
2023-02-11T08:28:09.041Z,25.92
2023-02-11T08:30:36.056Z,20.17
2023-02-11T08:33:02.817Z,19.75
2023-02-11T08:35:29.829Z,22.67
2023-02-11T08:37:56.578Z,23.73
2023-02-11T08:40:23.437Z,21.00
2023-02-11T08:42:50.155Z,26.73
2023-02-11T08:45:17.326Z,23.48
2023-02-11T08:47:44.011Z,27.25
2023-02-11T08:50:10.710Z,25.73
2023-02-11T08:52:37.480Z,26.33
2023-02-11T08:55:04.651Z,24.08
2023-02-11T08:57:31.341Z,21.00
2023-02-11T08:59:58.502Z,24.02
2023-02-11T09:02:25.305Z,23.90
2023-02-11T09:04:52.255Z,25.65
2023-02-11T09:07:19.129Z,26.90
2023-02-11T09:09:46.052Z,24.13
2023-02-11T09:12:12.760Z,24.23
2023-02-11T09:14:39.595Z,24.50
2023-02-11T09:17:06.500Z,26.38
2023-02-11T09:19:33.320Z,21.90
2023-02-11T09:22:01.348Z,24.90
2023-02-11T09:24:28.093Z,22.52
2023-02-11T09:26:54.814Z,20.92
2023-02-11T09:29:22.156Z,24.30
2023-02-11T09:31:49.816Z,21.27
2023-02-11T09:34:16.812Z,27.05
2023-02-11T09:36:43.567Z,24.80
2023-02-11T09:39:19.540Z,23.00
2023-02-11T09:42:10.351Z,20.55
2023-02-11T09:44:38.368Z,20.48
2023-02-11T09:47:15.795Z,21.45
2023-02-11T09:49:51.693Z,21.58
2023-02-11T09:52:39.510Z,16.55
2023-02-11T09:55:30.030Z,21.27
2023-02-11T09:57:57.942Z,22.42
2023-02-11T10:00:28.707Z,21.33
2023-02-11T10:03:07.226Z,25.37
2023-02-11T10:05:50.817Z,21.10
2023-02-11T10:08:52.592Z,20.50
2023-02-11T10:14:18.105Z,19.35
2023-02-11T10:17:14.246Z,21.17
2023-02-11T10:20:08.540Z,19.95
2023-02-11T10:23:01.720Z,18.23
2023-02-11T10:25:45.148Z,17.17
2023-02-11T10:28:15.929Z,20.42
2023-02-11T10:31:02.446Z,15.10
2023-02-11T10:33:35.459Z,18.42
2023-02-11T10:36:04.249Z,18.70
2023-02-11T10:38:32.968Z,16.95
2023-02-11T10:41:00.281Z,15.30
2023-02-11T10:43:28.925Z,16.60
2023-02-11T10:45:57.238Z,15.43
2023-02-11T10:48:49.262Z,18.20
2023-02-11T10:51:15.909Z,16.48
2023-02-11T10:53:42.865Z,16.20
2023-02-11T10:56:14.282Z,15.15
2023-02-11T10:58:45.705Z,16.05
2023-02-11T11:01:24.294Z,12.40
2023-02-11T11:03:52.939Z,13.55
2023-02-11T11:06:32.124Z,18.08
2023-02-11T11:08:58.812Z,15.30
2023-02-11T11:11:27.181Z,14.82
2023-02-11T11:13:54.017Z,19.15
2023-02-11T11:16:22.705Z,16.50
2023-02-11T11:19:10.690Z,17.30
2023-02-11T11:21:49.473Z,15.45
2023-02-11T11:24:57.320Z,15.85
2023-02-11T11:27:25.904Z,19.08
2023-02-11T11:29:56.223Z,16.80
2023-02-11T11:32:29.268Z,13.68
2023-02-11T11:35:00.149Z,14.63
2023-02-11T11:37:35.945Z,16.38
2023-02-11T11:40:07.960Z,12.77
2023-02-11T11:42:37.607Z,13.15
2023-02-11T11:45:24.707Z,14.23
2023-02-11T11:48:32.736Z,13.45
2023-02-11T11:51:06.443Z,15.05
2023-02-11T11:53:44.025Z,15.75
2023-02-11T11:56:41.359Z,13.20
2023-02-11T11:59:15.037Z,13.00
2023-02-11T12:01:50.866Z,16.50
2023-02-11T12:04:55.083Z,12.77
2023-02-11T12:08:18.048Z,13.07
2023-02-11T12:11:12.957Z,12.60
2023-02-11T12:13:53.960Z,13.80
2023-02-11T12:16:39.325Z,12.73
2023-02-11T12:19:21.441Z,12.25
2023-02-11T12:22:05.140Z,12.35
2023-02-11T12:24:37.824Z,13.15
2023-02-11T12:27:12.936Z,10.88
2023-02-11T12:29:51.278Z,15.63
2023-02-11T12:32:39.159Z,12.85
2023-02-11T12:35:39.622Z,13.07
2023-02-11T12:38:31.450Z,9.35
2023-02-11T12:41:46.792Z,11.38
2023-02-11T12:44:57.805Z,11.43
2023-02-11T12:47:50.733Z,13.23
2023-02-11T12:50:47.048Z,11.25
2023-02-11T12:53:31.733Z,13.15
2023-02-11T12:56:19.523Z,12.35
2023-02-11T12:58:47.496Z,13.95
2023-02-11T13:01:22.917Z,10.13
2023-02-11T13:04:09.120Z,10.50
2023-02-11T13:07:14.511Z,11.45
2023-02-11T13:10:07.621Z,13.40
2023-02-11T13:12:55.209Z,13.23
2023-02-11T13:15:22.070Z,14.57
2023-02-11T13:18:22.464Z,14.18
2023-02-11T13:21:30.985Z,12.18
2023-02-11T13:24:32.688Z,14.23
2023-02-11T13:27:15.091Z,13.25
2023-02-11T13:30:04.465Z,12.15
2023-02-11T13:32:55.861Z,12.63
2023-02-11T13:35:44.822Z,14.10
2023-02-11T13:38:17.260Z,15.43
2023-02-11T13:40:44.886Z,13.55
2023-02-11T13:43:23.663Z,13.85
2023-02-11T13:45:52.055Z,11.80
2023-02-11T13:48:30.378Z,13.00
2023-02-11T13:51:00.572Z,11.32
2023-02-11T13:53:28.046Z,12.40
2023-02-11T13:56:09.299Z,12.50
2023-02-11T13:58:39.966Z,11.68
2023-02-11T14:01:07.674Z,14.53
2023-02-11T14:03:55.738Z,13.05
2023-02-11T14:07:06.068Z,12.77
2023-02-11T14:09:36.025Z,9.63
2023-02-11T14:12:24.816Z,14.45
2023-02-11T14:15:02.875Z,14.05
2023-02-11T14:17:33.891Z,11.18
2023-02-11T14:20:04.392Z,13.02
2023-02-11T14:22:42.320Z,10.35
2023-02-11T14:25:24.733Z,12.55
2023-02-11T14:28:17.818Z,16.40
2023-02-11T14:31:03.219Z,13.95
2023-02-11T14:33:46.305Z,12.57
2023-02-11T14:36:48.759Z,12.50
2023-02-11T14:39:25.367Z,13.02
2023-02-11T14:41:52.632Z,12.02
2023-02-11T14:44:27.263Z,13.75
2023-02-11T14:46:55.384Z,11.80
2023-02-11T14:49:27.743Z,11.38
2023-02-11T14:52:00.201Z,15.65
2023-02-11T14:54:28.744Z,12.63
2023-02-11T14:57:12.481Z,13.00
2023-02-11T14:59:40.035Z,12.32
2023-02-11T15:02:29.949Z,10.73
2023-02-11T15:05:26.076Z,12.80
2023-02-11T15:08:02.032Z,13.18
2023-02-11T15:10:41.130Z,11.77
2023-02-11T15:13:09.032Z,13.45
2023-02-11T15:15:40.627Z,15.95
2023-02-11T15:20:36.934Z,12.40
2023-02-11T15:23:08.154Z,11.63
2023-02-11T15:25:43.915Z,11.57
2023-02-11T15:28:22.212Z,11.95
2023-02-11T15:30:59.648Z,9.98
2023-02-11T15:33:29.897Z,10.32
2023-02-11T15:35:57.457Z,14.43
2023-02-11T15:38:24.203Z,12.77
2023-02-11T15:40:55.049Z,12.93
2023-02-11T15:43:21.827Z,11.05
2023-02-11T15:45:51.299Z,10.90
2023-02-11T15:48:26.789Z,10.60
2023-02-11T15:51:01.155Z,14.82
2023-02-11T15:53:34.773Z,14.98
2023-02-11T15:56:44.173Z,16.77
2023-02-11T15:59:22.469Z,16.15
2023-02-11T16:01:49.787Z,20.02
2023-02-11T16:04:23.226Z,19.23
2023-02-11T16:11:09.073Z,14.90
2023-02-11T16:13:46.584Z,16.70
2023-02-11T16:16:34.749Z,13.85
2023-02-11T16:19:06.162Z,17.05
2023-02-11T16:21:43.073Z,19.38
2023-02-11T16:24:24.427Z,13.35
2023-02-11T16:26:55.062Z,13.77
2023-02-11T16:29:27.350Z,13.48
2023-02-11T16:32:06.269Z,13.18
2023-02-11T16:34:33.284Z,13.55
2023-02-11T16:37:06.261Z,11.80
2023-02-11T16:39:33.516Z,10.25
2023-02-11T16:42:01.305Z,13.00
2023-02-11T16:44:28.781Z,15.93
2023-02-11T16:46:59.599Z,12.73
2023-02-11T16:49:41.827Z,15.65
2023-02-11T16:52:14.712Z,13.52
2023-02-11T16:54:41.497Z,12.40
2023-02-11T16:57:22.241Z,13.00
2023-02-11T16:59:49.659Z,12.20
2023-02-11T17:02:25.702Z,17.08
2023-02-11T17:04:53.960Z,11.60
2023-02-11T17:07:21.060Z,12.48
2023-02-11T17:09:48.015Z,15.45
2023-02-11T17:12:15.166Z,13.93
2023-02-11T17:14:41.899Z,15.63
2023-02-11T17:17:10.067Z,11.43
2023-02-11T17:19:37.937Z,13.88
2023-02-11T17:22:05.385Z,12.38
2023-02-11T17:24:32.625Z,13.52
2023-02-11T17:26:59.435Z,14.32
2023-02-11T17:29:26.312Z,12.68
2023-02-11T17:31:53.443Z,11.85
2023-02-11T17:34:22.360Z,13.43
2023-02-11T17:36:49.795Z,13.77
2023-02-11T17:39:16.582Z,13.73
2023-02-11T17:41:43.597Z,14.93
2023-02-11T17:44:12.508Z,13.07
2023-02-11T17:46:39.516Z,13.05
2023-02-11T17:49:06.451Z,11.00
2023-02-11T17:51:36.152Z,10.32
2023-02-11T17:54:12.183Z,14.07
2023-02-11T17:56:39.394Z,11.90
2023-02-11T17:59:08.406Z,13.15
2023-02-11T18:01:37.296Z,13.48
2023-02-11T18:04:05.090Z,15.82
2023-02-11T18:06:33.783Z,12.30
2023-02-11T18:09:04.183Z,12.93
2023-02-11T18:11:32.722Z,11.95
2023-02-11T18:14:00.059Z,15.20
2023-02-11T18:16:29.389Z,12.65
2023-02-11T18:18:58.216Z,13.95
2023-02-11T18:21:25.385Z,13.27
2023-02-11T18:23:52.541Z,15.95
2023-02-11T18:26:20.783Z,11.90
2023-02-11T18:28:48.327Z,12.77
2023-02-11T18:31:17.168Z,12.60
2023-02-11T18:33:44.597Z,16.05
2023-02-11T18:36:13.829Z,10.07
2023-02-11T18:38:42.262Z,12.27
2023-02-11T18:41:09.018Z,14.15
2023-02-11T18:43:36.634Z,11.23
2023-02-11T18:46:08.523Z,13.68
2023-02-11T18:48:35.627Z,14.75
2023-02-11T18:51:02.414Z,13.27
2023-02-11T18:53:29.290Z,12.43
2023-02-11T18:55:56.036Z,12.45
2023-02-11T18:58:22.803Z,15.93
2023-02-11T19:00:50.267Z,18.92
2023-02-11T19:03:17.369Z,17.08
2023-02-11T19:05:48.207Z,17.35
2023-02-11T19:08:16.037Z,16.10
2023-02-11T19:10:45.031Z,16.25
2023-02-11T19:13:12.320Z,17.17
2023-02-11T19:15:42.872Z,15.68
2023-02-11T19:18:10.588Z,14.70
2023-02-11T19:20:42.265Z,16.38
2023-02-11T19:25:36.419Z,15.35
2023-02-11T19:28:03.666Z,16.70
2023-02-11T19:30:30.775Z,13.23
2023-02-11T19:32:57.866Z,16.05
2023-02-11T19:35:25.362Z,14.77
2023-02-11T19:37:52.227Z,15.32
2023-02-11T19:40:21.235Z,15.85
2023-02-11T19:42:48.395Z,16.10
2023-02-11T19:45:15.524Z,12.73
2023-02-11T19:47:42.295Z,16.58
2023-02-11T19:50:09.961Z,14.07
2023-02-11T19:52:40.733Z,16.33
2023-02-11T19:55:08.467Z,18.10
2023-02-11T19:57:36.978Z,16.70
2023-02-11T20:00:04.675Z,15.98
2023-02-11T20:02:40.192Z,16.55
2023-02-11T20:05:07.363Z,15.40
2023-02-11T20:07:35.201Z,19.52
2023-02-11T20:10:02.254Z,18.58
2023-02-11T20:12:29.290Z,19.40
2023-02-11T20:14:56.062Z,18.33
2023-02-11T20:17:22.845Z,19.63
2023-02-11T20:19:49.684Z,16.27
2023-02-11T20:22:16.517Z,18.27
2023-02-11T20:24:43.324Z,15.90
2023-02-11T20:27:11.521Z,19.42
2023-02-11T20:29:39.003Z,16.48
2023-02-11T20:32:07.341Z,19.20
2023-02-11T20:34:34.317Z,15.50
2023-02-11T20:37:03.006Z,20.35
2023-02-11T20:39:29.812Z,18.42
2023-02-11T20:41:57.581Z,20.35
2023-02-11T20:44:24.873Z,23.95
2023-02-11T20:46:54.023Z,22.60
2023-02-11T20:49:23.946Z,20.48
2023-02-11T20:51:52.502Z,21.13
2023-02-11T20:54:21.278Z,18.15
2023-02-11T20:56:50.685Z,23.30
2023-02-11T20:59:18.331Z,17.40
2023-02-11T21:01:48.333Z,17.92
2023-02-11T21:04:20.767Z,16.33
2023-02-11T21:06:50.019Z,14.77
2023-02-11T21:09:22.113Z,15.73
2023-02-11T21:11:51.663Z,19.73
2023-02-11T21:14:20.762Z,18.85
2023-02-11T21:16:48.699Z,20.75
2023-02-11T21:19:16.150Z,19.55
2023-02-11T21:21:43.464Z,21.90
2023-02-11T21:24:10.851Z,21.08
2023-02-11T21:26:38.310Z,22.52
2023-02-11T21:29:07.293Z,25.50
2023-02-11T21:31:36.465Z,24.55
2023-02-11T21:34:04.275Z,21.73
2023-02-11T21:36:31.519Z,21.77
2023-02-11T21:38:58.819Z,27.75
2023-02-11T21:41:27.416Z,19.58
2023-02-11T21:43:54.675Z,18.80
2023-02-11T21:46:22.394Z,19.63
2023-02-11T21:48:49.883Z,20.13
2023-02-11T21:51:19.609Z,23.33
2023-02-11T21:53:46.784Z,21.15
2023-02-11T21:56:16.630Z,19.92
2023-02-11T21:58:44.166Z,20.48
2023-02-11T22:01:20.575Z,22.77
2023-02-11T22:03:48.246Z,22.85
2023-02-11T22:06:26.160Z,24.02
2023-02-11T22:08:54.730Z,26.98
2023-02-11T22:11:21.852Z,22.73
2023-02-11T22:13:52.477Z,24.98
2023-02-11T22:16:19.256Z,22.00
2023-02-11T22:18:46.522Z,32.03
2023-02-11T22:21:16.492Z,27.67
2023-02-11T22:23:43.871Z,25.48
2023-02-11T22:26:19.184Z,23.50
2023-02-11T22:28:46.650Z,23.00
2023-02-11T22:31:20.054Z,19.38
2023-02-11T22:33:47.664Z,23.58
2023-02-11T22:36:23.095Z,21.60
2023-02-11T22:38:50.111Z,20.70
2023-02-11T22:41:17.639Z,17.63
2023-02-11T22:43:45.605Z,21.88
2023-02-11T22:46:15.485Z,20.50
2023-02-11T22:48:42.404Z,18.67
2023-02-11T22:51:12.983Z,19.70
2023-02-11T22:53:40.209Z,22.33
2023-02-11T22:56:09.924Z,22.58
2023-02-11T22:58:37.692Z,23.48
2023-02-11T23:01:05.999Z,22.48
2023-02-11T23:03:34.830Z,26.17
2023-02-11T23:06:02.347Z,25.15
2023-02-11T23:08:30.535Z,22.60
2023-02-11T23:11:07.060Z,17.73
2023-02-11T23:13:36.542Z,19.42
2023-02-11T23:16:09.332Z,19.73
2023-02-11T23:18:38.243Z,19.70
2023-02-11T23:21:09.490Z,22.35
2023-02-11T23:23:38.927Z,17.80
2023-02-11T23:26:10.199Z,24.60
2023-02-11T23:28:37.000Z,22.27
2023-02-11T23:31:18.201Z,22.10
2023-02-11T23:33:46.478Z,21.80
2023-02-11T23:36:14.170Z,20.25
2023-02-11T23:38:41.313Z,22.50
2023-02-11T23:41:08.566Z,20.48
2023-02-11T23:43:35.350Z,18.70
2023-02-11T23:46:02.806Z,19.17
2023-02-11T23:48:29.610Z,19.83
2023-02-11T23:50:56.360Z,22.13
2023-02-11T23:53:23.182Z,18.58
2023-02-11T23:55:50.325Z,19.02
2023-02-11T23:58:17.186Z,19.10
